createdAt,value
2022-08-11T00:00:27.237Z,56.50
2022-08-11T00:01:27.223Z,57.10
2022-08-11T00:02:27.221Z,56.40
2022-08-11T00:03:43.163Z,56.30
2022-08-11T00:04:28.206Z,56.43
2022-08-11T00:05:27.185Z,56.40
2022-08-11T00:06:27.166Z,56.73
2022-08-11T00:07:27.178Z,56.33
2022-08-11T00:08:27.143Z,56.50
2022-08-11T00:09:27.133Z,56.40
2022-08-11T00:10:27.126Z,56.50
2022-08-11T00:11:27.115Z,56.52
2022-08-11T00:12:27.134Z,56.93
2022-08-11T00:13:27.095Z,56.43
2022-08-11T00:14:36.940Z,56.93
2022-08-11T00:15:28.073Z,56.63
2022-08-11T00:16:27.091Z,56.73
2022-08-11T00:17:27.065Z,56.63
2022-08-11T00:18:27.034Z,56.83
2022-08-11T00:20:13.793Z,56.52
2022-08-11T00:20:28.018Z,56.23
2022-08-11T00:22:03.134Z,56.52
2022-08-11T00:22:28.014Z,57.13
2022-08-11T00:23:26.979Z,56.93
2022-08-11T00:24:26.974Z,56.83
2022-08-11T00:25:27.223Z,56.83
2022-08-11T00:26:26.948Z,56.93
2022-08-11T00:27:26.955Z,56.93
2022-08-11T00:28:27.212Z,56.83
2022-08-11T00:29:27.119Z,57.23
2022-08-11T00:30:26.904Z,56.93
2022-08-11T00:31:26.910Z,56.83
2022-08-11T00:32:26.896Z,57.23
2022-08-11T00:33:41.237Z,56.73
2022-08-11T00:34:27.855Z,56.63
2022-08-11T00:35:50.935Z,56.52
2022-08-11T00:36:27.860Z,56.76
2022-08-11T00:37:26.828Z,56.76
2022-08-11T00:38:26.815Z,57.03
2022-08-11T00:39:28.718Z,57.15
2022-08-11T00:40:27.021Z,57.26
2022-08-11T00:41:26.840Z,57.06
2022-08-11T00:42:26.774Z,57.15
2022-08-11T00:43:26.810Z,57.46
2022-08-11T00:44:26.777Z,56.96
2022-08-11T00:45:26.742Z,56.76
2022-08-11T00:46:26.758Z,56.76
2022-08-11T00:47:26.715Z,56.85
2022-08-11T00:48:26.723Z,56.76
2022-08-11T00:49:26.696Z,56.76
2022-08-11T00:50:26.680Z,56.65
2022-08-11T00:51:26.670Z,56.65
2022-08-11T00:52:27.676Z,57.26
2022-08-11T00:53:26.651Z,57.89
2022-08-11T00:54:26.639Z,57.56
2022-08-11T00:55:27.623Z,57.68
2022-08-11T00:56:26.615Z,57.79
2022-08-11T00:57:37.376Z,57.28
2022-08-11T00:58:27.608Z,57.79
2022-08-11T00:59:35.274Z,57.59
2022-08-11T01:00:27.570Z,57.68
2022-08-11T01:01:26.817Z,57.79
2022-08-11T01:02:29.158Z,57.79
2022-08-11T01:03:26.585Z,57.98
2022-08-11T01:04:26.541Z,58.18
2022-08-11T01:05:26.516Z,58.09
2022-08-11T01:06:26.503Z,58.18
2022-08-11T01:08:01.439Z,58.42
2022-08-11T01:08:27.504Z,58.49
2022-08-11T01:09:26.478Z,58.22
2022-08-11T01:10:26.475Z,58.11
2022-08-11T01:11:26.448Z,58.42
2022-08-11T01:12:26.440Z,58.72
2022-08-11T01:13:26.461Z,58.92
2022-08-11T01:14:33.757Z,58.92
2022-08-11T01:15:27.402Z,58.51
2022-08-11T01:16:26.441Z,58.51
2022-08-11T01:17:26.388Z,58.81
2022-08-11T01:18:28.356Z,59.01
2022-08-11T01:19:26.361Z,59.01
2022-08-11T01:20:47.916Z,58.92
2022-08-11T01:21:27.343Z,58.92
2022-08-11T01:22:26.346Z,59.12
2022-08-11T01:23:26.352Z,58.94
2022-08-11T01:24:26.311Z,59.12
2022-08-11T01:25:26.382Z,59.22
2022-08-11T01:26:26.289Z,58.92
2022-08-11T01:27:26.274Z,58.72
2022-08-11T01:28:26.271Z,59.01
2022-08-11T01:29:26.273Z,58.72
2022-08-11T01:30:26.238Z,59.25
2022-08-11T01:31:26.292Z,59.72
2022-08-11T01:32:26.232Z,59.82
2022-08-11T01:33:26.233Z,59.85
2022-08-11T01:34:26.201Z,59.45
2022-08-11T01:35:26.186Z,59.45
2022-08-11T01:36:26.185Z,60.35
2022-08-11T01:37:26.166Z,60.25
2022-08-11T01:38:26.165Z,60.15
2022-08-11T01:39:26.214Z,59.95
2022-08-11T01:40:26.193Z,59.85
2022-08-11T01:41:26.167Z,60.68
2022-08-11T01:42:26.119Z,60.58
2022-08-11T01:43:26.099Z,60.98
2022-08-11T01:44:26.091Z,60.58
2022-08-11T01:45:26.089Z,60.78
2022-08-11T01:46:26.081Z,60.38
2022-08-11T01:47:26.106Z,60.78
2022-08-11T01:48:26.041Z,60.28
2022-08-11T01:50:08.445Z,60.28
2022-08-11T01:50:27.118Z,60.48
2022-08-11T01:51:26.013Z,60.48
2022-08-11T01:52:33.311Z,60.28
2022-08-11T01:53:27.016Z,60.98
2022-08-11T01:54:25.971Z,60.48
2022-08-11T01:55:25.968Z,60.48
2022-08-11T01:56:25.954Z,60.88
2022-08-11T01:57:26.326Z,61.01
2022-08-11T01:58:36.270Z,61.29
2022-08-11T01:59:26.921Z,61.08
2022-08-11T02:00:25.947Z,61.38
2022-08-11T02:01:25.894Z,61.29
2022-08-11T02:02:25.903Z,61.29
2022-08-11T02:03:25.896Z,61.29
2022-08-11T02:04:25.864Z,61.49
2022-08-11T02:05:25.852Z,61.71
2022-08-11T02:06:25.879Z,61.51
2022-08-11T02:07:25.833Z,61.21
2022-08-11T02:08:33.226Z,61.31
2022-08-11T02:09:26.804Z,61.71
2022-08-11T02:10:35.120Z,61.41
2022-08-11T02:11:26.798Z,61.41
2022-08-11T02:12:25.772Z,61.69
2022-08-11T02:13:35.354Z,61.71
2022-08-11T02:14:26.747Z,61.82
2022-08-11T02:15:25.839Z,61.61
2022-08-11T02:16:25.725Z,61.61
2022-08-11T02:17:25.719Z,61.71
2022-08-11T02:18:25.842Z,61.61
2022-08-11T02:19:25.698Z,61.31
2022-08-11T02:20:26.308Z,61.91
2022-08-11T02:21:25.668Z,62.02
2022-08-11T02:22:25.659Z,61.82
2022-08-11T02:24:04.191Z,61.91
2022-08-11T02:24:26.766Z,62.02
2022-08-11T02:25:25.625Z,61.82
2022-08-11T02:26:25.732Z,61.91
2022-08-11T02:27:25.606Z,62.05
2022-08-11T02:28:25.592Z,62.24
2022-08-11T02:29:25.589Z,62.32
2022-08-11T02:30:25.588Z,62.45
2022-08-11T02:32:24.706Z,62.35
2022-08-11T02:32:30.787Z,62.22
2022-08-11T02:33:25.544Z,62.32
2022-08-11T02:34:33.338Z,62.05
2022-08-11T02:35:25.529Z,62.05
2022-08-11T02:36:25.556Z,62.15
2022-08-11T02:37:25.489Z,62.12
2022-08-11T02:38:25.477Z,62.15
2022-08-11T02:39:25.534Z,62.35
2022-08-11T02:40:25.457Z,62.65
2022-08-11T02:41:25.446Z,62.55
2022-08-11T02:42:32.376Z,62.65
2022-08-11T02:43:26.421Z,62.45
2022-08-11T02:44:25.414Z,62.45
2022-08-11T02:45:25.399Z,62.55
2022-08-11T02:46:25.439Z,62.95
2022-08-11T02:47:25.376Z,63.15
2022-08-11T02:48:25.358Z,62.85
2022-08-11T02:49:25.357Z,63.08
2022-08-11T02:50:25.356Z,63.35
2022-08-11T02:51:25.350Z,62.95
2022-08-11T02:52:25.318Z,63.28
2022-08-11T02:53:25.308Z,63.48
2022-08-11T02:54:25.304Z,63.35
2022-08-11T02:55:44.629Z,63.28
2022-08-11T02:56:26.537Z,63.08
2022-08-11T02:57:25.261Z,63.99
2022-08-11T02:58:27.161Z,63.48
2022-08-11T02:59:25.259Z,63.89
2022-08-11T03:00:25.227Z,63.68
2022-08-11T03:01:25.279Z,63.89
2022-08-11T03:02:25.205Z,63.89
2022-08-11T03:03:25.368Z,63.79
2022-08-11T03:04:25.185Z,63.68
2022-08-11T03:05:26.183Z,63.59
2022-08-11T03:06:25.159Z,63.08
2022-08-11T03:07:29.166Z,64.09
2022-08-11T03:08:25.134Z,63.89
2022-08-11T03:09:25.127Z,63.68
2022-08-11T03:10:25.133Z,63.59
2022-08-11T03:11:25.099Z,63.68
2022-08-11T03:12:25.091Z,63.31
2022-08-11T03:13:25.080Z,64.42
2022-08-11T03:14:25.085Z,64.62
2022-08-11T03:15:25.061Z,64.32
2022-08-11T03:16:25.040Z,64.09
2022-08-11T03:17:25.041Z,64.49
2022-08-11T03:18:25.175Z,64.39
2022-08-11T03:19:25.029Z,64.62
2022-08-11T03:20:25.000Z,64.42
2022-08-11T03:21:50.587Z,64.49
2022-08-11T03:22:25.977Z,64.52
2022-08-11T03:23:24.970Z,64.52
2022-08-11T03:24:24.957Z,65.02
2022-08-11T03:25:24.961Z,64.92
2022-08-11T03:26:24.933Z,65.12
2022-08-11T03:27:24.925Z,64.82
2022-08-11T03:28:24.932Z,65.02
2022-08-11T03:29:25.367Z,65.33
2022-08-11T03:30:24.891Z,65.53
2022-08-11T03:31:24.968Z,65.12
2022-08-11T03:32:24.882Z,65.22
2022-08-11T03:33:24.858Z,65.02
2022-08-11T03:34:24.865Z,65.12
2022-08-11T03:35:24.841Z,64.82
2022-08-11T03:36:24.837Z,65.33
2022-08-11T03:37:24.822Z,65.36
2022-08-11T03:38:24.797Z,65.46
2022-08-11T03:39:25.840Z,65.66
2022-08-11T03:40:24.804Z,65.73
2022-08-11T03:41:57.657Z,65.16
2022-08-11T03:42:25.760Z,65.66
2022-08-11T03:43:25.247Z,65.96
2022-08-11T03:44:24.734Z,65.66
2022-08-11T03:45:24.740Z,65.66
2022-08-11T03:46:24.715Z,65.66
2022-08-11T03:47:24.705Z,65.56
2022-08-11T03:48:24.708Z,65.76
2022-08-11T03:49:24.698Z,65.36
2022-08-11T03:50:24.673Z,65.26
2022-08-11T03:51:24.664Z,65.33
2022-08-11T03:52:24.649Z,65.36
2022-08-11T03:53:24.655Z,65.33
2022-08-11T03:54:24.628Z,65.33
2022-08-11T03:55:24.618Z,64.72
2022-08-11T03:56:24.882Z,65.02
2022-08-11T03:57:24.596Z,64.72
2022-08-11T03:58:24.609Z,64.92
2022-08-11T03:59:24.570Z,64.92
2022-08-11T04:00:24.564Z,65.02
2022-08-11T04:01:24.589Z,65.02
2022-08-11T04:02:24.540Z,65.02
2022-08-11T04:03:31.297Z,64.82
2022-08-11T04:04:25.517Z,65.02
2022-08-11T04:05:24.505Z,65.12
2022-08-11T04:06:24.496Z,65.02
2022-08-11T04:07:24.501Z,65.22
2022-08-11T04:08:24.474Z,64.92
2022-08-11T04:09:24.476Z,64.92
2022-08-11T04:10:24.455Z,64.82
2022-08-11T04:11:24.479Z,64.72
2022-08-11T04:12:36.280Z,65.02
2022-08-11T04:13:25.478Z,65.02
2022-08-11T04:14:24.425Z,64.32
2022-08-11T04:15:24.415Z,64.72
2022-08-11T04:16:24.382Z,64.42
2022-08-11T04:17:24.399Z,64.59
2022-08-11T04:18:24.362Z,64.52
2022-08-11T04:19:24.351Z,64.32
2022-08-11T04:20:24.340Z,64.39
2022-08-11T04:21:24.341Z,64.69
2022-08-11T04:22:24.314Z,63.59
2022-08-11T04:24:35.706Z,63.99
2022-08-11T04:24:38.478Z,63.79
2022-08-11T04:25:25.322Z,63.59
2022-08-11T04:26:24.271Z,63.39
2022-08-11T04:27:24.261Z,63.39
2022-08-11T04:28:29.199Z,63.18
2022-08-11T04:29:25.237Z,63.18
2022-08-11T04:30:26.789Z,63.28
2022-08-11T04:31:50.546Z,63.18
2022-08-11T04:32:25.207Z,63.48
2022-08-11T04:33:24.193Z,63.59
2022-08-11T04:34:24.185Z,63.68
2022-08-11T04:35:24.173Z,63.68
2022-08-11T04:36:24.173Z,63.18
2022-08-11T04:37:24.150Z,63.39
2022-08-11T04:38:24.131Z,63.28
2022-08-11T04:39:24.184Z,63.39
2022-08-11T04:40:24.113Z,63.59
2022-08-11T04:41:24.311Z,63.39
2022-08-11T04:42:28.340Z,63.28
2022-08-11T04:43:25.099Z,63.48
2022-08-11T04:44:24.086Z,63.68
2022-08-11T04:45:24.278Z,63.48
2022-08-11T04:46:24.052Z,63.79
2022-08-11T04:47:24.038Z,63.59
2022-08-11T04:48:24.026Z,63.65
2022-08-11T04:49:26.260Z,63.68
2022-08-11T04:50:25.034Z,63.45
2022-08-11T04:51:23.994Z,63.25
2022-08-11T04:52:23.982Z,63.25
2022-08-11T04:53:24.971Z,63.25
2022-08-11T04:54:28.329Z,63.96
2022-08-11T04:55:23.961Z,63.65
2022-08-11T04:56:23.944Z,63.35
2022-08-11T04:57:23.926Z,63.56
2022-08-11T04:58:29.437Z,63.45
2022-08-11T04:59:24.904Z,63.56
2022-08-11T05:00:24.041Z,63.15
2022-08-11T05:01:23.894Z,63.05
2022-08-11T05:02:23.943Z,63.35
2022-08-11T05:03:23.858Z,63.65
2022-08-11T05:04:23.954Z,63.25
2022-08-11T05:05:23.877Z,63.45
2022-08-11T05:06:23.824Z,63.35
2022-08-11T05:07:23.820Z,63.15
2022-08-11T05:08:24.320Z,63.85
2022-08-11T05:09:23.831Z,63.25
2022-08-11T05:10:23.815Z,63.15
2022-08-11T05:11:23.770Z,63.56
2022-08-11T05:12:23.762Z,63.65
2022-08-11T05:13:23.742Z,64.06
2022-08-11T05:14:23.737Z,63.05
2022-08-11T05:15:23.761Z,63.56
2022-08-11T05:16:23.712Z,63.45
2022-08-11T05:17:23.932Z,63.32
2022-08-11T05:18:23.700Z,63.76
2022-08-11T05:19:23.679Z,63.35
2022-08-11T05:20:23.665Z,63.12
2022-08-11T05:21:23.901Z,63.53
2022-08-11T05:22:23.647Z,63.42
2022-08-11T05:23:23.636Z,63.32
2022-08-11T05:24:23.641Z,63.02
2022-08-11T05:26:42.846Z,63.32
2022-08-11T05:26:47.745Z,63.09
2022-08-11T05:27:24.586Z,63.02
2022-08-11T05:28:23.573Z,63.53
2022-08-11T05:29:23.577Z,63.49
2022-08-11T05:30:23.552Z,63.59
2022-08-11T05:31:23.549Z,62.89
2022-08-11T05:32:23.530Z,62.99
2022-08-11T05:33:23.533Z,62.79
2022-08-11T05:34:23.510Z,63.39
2022-08-11T05:36:00.537Z,62.89
2022-08-11T05:36:24.487Z,62.86
2022-08-11T05:37:27.170Z,63.59
2022-08-11T05:38:23.465Z,63.09
2022-08-11T05:39:36.280Z,62.29
2022-08-11T05:40:24.441Z,62.66
2022-08-11T05:41:23.428Z,62.46
2022-08-11T05:42:30.344Z,62.56
2022-08-11T05:43:24.403Z,62.46
2022-08-11T05:44:23.426Z,62.66
2022-08-11T05:45:23.396Z,62.86
2022-08-11T05:46:23.374Z,62.36
2022-08-11T05:47:23.363Z,62.36
2022-08-11T05:48:23.353Z,62.26
2022-08-11T05:49:23.380Z,62.23
2022-08-11T05:50:31.312Z,62.23
2022-08-11T05:51:26.056Z,61.96
2022-08-11T05:52:31.688Z,61.83
2022-08-11T05:53:24.300Z,62.03
2022-08-11T05:54:29.390Z,61.93
2022-08-11T05:55:24.354Z,61.60
2022-08-11T05:56:23.266Z,61.50
2022-08-11T05:57:49.748Z,61.30
2022-08-11T05:58:24.239Z,61.27
2022-08-11T05:59:23.247Z,60.66
2022-08-11T06:00:23.220Z,60.66
2022-08-11T06:01:23.265Z,60.24
2022-08-11T06:02:23.196Z,60.24
2022-08-11T06:03:23.183Z,60.44
2022-08-11T06:04:23.174Z,59.94
2022-08-11T06:05:23.162Z,60.03
2022-08-11T06:06:23.170Z,59.74
2022-08-11T06:07:23.139Z,59.81
2022-08-11T06:08:23.130Z,59.81
2022-08-11T06:09:23.123Z,59.70
2022-08-11T06:10:23.107Z,60.01
2022-08-11T06:11:43.616Z,59.91
2022-08-11T06:12:24.150Z,59.50
2022-08-11T06:13:23.088Z,59.98
2022-08-11T06:14:23.064Z,58.78
2022-08-11T06:15:23.066Z,58.98
2022-08-11T06:16:23.044Z,58.85
2022-08-11T06:17:23.029Z,58.12
2022-08-11T06:18:23.019Z,58.02
2022-08-11T06:19:23.007Z,57.39
2022-08-11T06:20:23.014Z,56.89
2022-08-11T06:21:22.985Z,56.57
2022-08-11T06:22:22.976Z,57.04
2022-08-11T06:23:22.962Z,56.31
2022-08-11T06:24:22.961Z,55.32
2022-08-11T06:25:23.931Z,55.21
2022-08-11T06:26:22.944Z,55.71
2022-08-11T06:27:22.920Z,55.99
2022-08-11T06:28:22.914Z,55.39
2022-08-11T06:29:22.931Z,54.24
2022-08-11T06:30:23.903Z,53.94
2022-08-11T06:31:22.877Z,52.89
2022-08-11T06:32:22.865Z,52.69
2022-08-11T06:33:22.855Z,52.27
2022-08-11T06:34:27.664Z,52.00
2022-08-11T06:35:23.841Z,51.89
2022-08-11T06:36:23.416Z,52.17
2022-08-11T06:37:23.449Z,51.47
2022-08-11T06:38:22.800Z,51.42
2022-08-11T06:39:22.878Z,50.28
2022-08-11T06:40:22.799Z,49.74
2022-08-11T06:41:22.764Z,47.80
2022-08-11T06:42:22.756Z,47.26
2022-08-11T06:43:22.780Z,46.55
2022-08-11T06:44:22.773Z,46.42
2022-08-11T06:45:22.728Z,45.21
2022-08-11T06:46:26.221Z,44.58
2022-08-11T06:47:23.695Z,44.40
2022-08-11T06:48:22.691Z,44.13
2022-08-11T06:49:22.678Z,45.34
2022-08-11T06:50:22.686Z,45.31
2022-08-11T06:51:22.657Z,44.68
2022-08-11T06:52:35.713Z,44.65
2022-08-11T06:53:23.634Z,42.42
2022-08-11T06:54:22.626Z,41.71
2022-08-11T06:55:55.562Z,41.49
2022-08-11T06:56:23.602Z,41.47
2022-08-11T06:57:31.035Z,41.14
2022-08-11T06:58:23.580Z,39.34
2022-08-11T06:59:22.704Z,39.94
2022-08-11T07:00:22.574Z,39.66
2022-08-11T07:01:22.606Z,40.58
2022-08-11T07:02:22.538Z,40.66
2022-08-11T07:03:22.552Z,39.76
2022-08-11T07:04:22.516Z,38.62
2022-08-11T07:05:22.504Z,38.90
2022-08-11T07:06:22.496Z,37.27
2022-08-11T07:07:22.483Z,36.84
2022-08-11T07:08:34.880Z,35.94
2022-08-11T07:09:23.460Z,35.81
2022-08-11T07:10:22.454Z,34.99
2022-08-11T07:11:22.442Z,33.77
2022-08-11T07:12:22.566Z,33.06
2022-08-11T07:13:44.857Z,31.74
2022-08-11T07:14:23.432Z,31.22
2022-08-11T07:15:22.402Z,30.02
2022-08-11T07:16:24.765Z,30.00
2022-08-11T07:17:22.376Z,29.61
2022-08-11T07:18:22.370Z,29.02
2022-08-11T07:19:22.372Z,30.12
2022-08-11T07:20:22.354Z,30.11
2022-08-11T07:22:00.814Z,29.91
2022-08-11T07:22:23.324Z,29.33
2022-08-11T07:23:22.330Z,29.61
2022-08-11T07:24:22.305Z,29.24
2022-08-11T07:25:23.295Z,29.83
2022-08-11T07:26:22.286Z,30.40
2022-08-11T07:27:22.275Z,29.32
2022-08-11T07:28:22.278Z,29.32
2022-08-11T07:29:22.262Z,29.30
2022-08-11T07:30:22.262Z,28.97
2022-08-11T07:31:22.237Z,28.26
2022-08-11T07:32:22.226Z,27.73
2022-08-11T07:34:07.747Z,27.22
2022-08-11T07:34:23.216Z,25.86
2022-08-11T07:35:22.203Z,26.29
2022-08-11T07:36:22.198Z,26.78
2022-08-11T07:37:23.396Z,26.48
2022-08-11T07:38:25.467Z,26.75
2022-08-11T07:39:22.321Z,25.57
2022-08-11T07:40:22.458Z,26.34
2022-08-11T07:41:22.395Z,26.65
2022-08-11T07:42:22.401Z,26.07
2022-08-11T07:43:22.289Z,25.48
2022-08-11T07:44:22.489Z,25.44
2022-08-11T07:45:22.298Z,25.22
2022-08-11T07:46:22.460Z,23.94
2022-08-11T07:47:22.363Z,24.15
2022-08-11T07:48:22.582Z,24.14
2022-08-11T07:49:22.265Z,23.83
2022-08-11T07:50:22.398Z,22.36
2022-08-11T07:51:22.229Z,22.54
2022-08-11T07:52:22.287Z,22.72
2022-08-11T07:53:22.323Z,22.45
2022-08-11T07:54:22.011Z,22.75
2022-08-11T07:55:21.995Z,22.55
2022-08-11T07:56:31.312Z,22.65
2022-08-11T07:57:45.059Z,22.16
2022-08-11T07:58:22.959Z,22.35
2022-08-11T07:59:21.957Z,23.05
2022-08-11T08:00:23.049Z,23.35
2022-08-11T08:01:23.015Z,23.75
2022-08-11T08:02:21.924Z,24.03
2022-08-11T08:03:21.913Z,23.65
2022-08-11T08:04:21.904Z,23.15
2022-08-11T08:05:21.963Z,23.43
2022-08-11T08:06:36.382Z,22.48
2022-08-11T08:07:22.872Z,23.07
2022-08-11T08:08:21.864Z,22.96
2022-08-11T08:09:21.854Z,22.85
2022-08-11T08:10:21.880Z,23.02
2022-08-11T08:11:27.138Z,22.53
2022-08-11T08:12:22.839Z,21.95
2022-08-11T08:13:21.831Z,22.16
2022-08-11T08:14:21.804Z,22.25
2022-08-11T08:15:21.793Z,22.71
2022-08-11T08:16:21.788Z,21.83
2022-08-11T08:17:21.790Z,20.56
2022-08-11T08:18:26.551Z,21.62
2022-08-11T08:19:22.756Z,21.94
2022-08-11T08:20:21.786Z,21.56
2022-08-11T08:21:21.737Z,21.85
2022-08-11T08:22:48.327Z,21.35
2022-08-11T08:23:22.720Z,20.95
2022-08-11T08:24:21.720Z,21.22
2022-08-11T08:25:21.699Z,21.03
2022-08-11T08:26:21.692Z,20.83
2022-08-11T08:27:21.696Z,21.19
2022-08-11T08:28:21.673Z,19.35
2022-08-11T08:29:21.663Z,19.24
2022-08-11T08:30:21.694Z,19.03
2022-08-11T08:31:21.646Z,19.22
2022-08-11T08:32:21.654Z,18.73
2022-08-11T08:33:21.627Z,18.62
2022-08-11T08:34:33.538Z,18.26
2022-08-11T08:35:21.612Z,18.76
2022-08-11T08:36:21.604Z,18.95
2022-08-11T08:37:45.506Z,18.55
2022-08-11T08:38:22.604Z,18.65
2022-08-11T08:39:21.777Z,18.77
2022-08-11T08:40:21.636Z,19.08
2022-08-11T08:41:21.608Z,19.18
2022-08-11T08:42:21.562Z,19.49
2022-08-11T08:43:21.541Z,19.40
2022-08-11T08:44:37.630Z,19.20
2022-08-11T08:45:22.528Z,20.25
2022-08-11T08:46:21.560Z,18.33
2022-08-11T08:47:42.619Z,19.38
2022-08-11T08:48:22.490Z,19.84
2022-08-11T08:49:21.484Z,19.15
2022-08-11T08:50:21.597Z,18.07
2022-08-11T08:51:22.477Z,17.77
2022-08-11T08:52:30.999Z,17.40
2022-08-11T08:53:22.448Z,18.24
2022-08-11T08:54:21.440Z,18.05
2022-08-11T08:55:21.426Z,17.68
2022-08-11T08:56:21.438Z,17.58
2022-08-11T08:57:21.420Z,17.27
2022-08-11T08:58:21.418Z,17.92
2022-08-11T08:59:21.404Z,17.94
2022-08-11T09:00:23.655Z,17.57
2022-08-11T09:01:21.443Z,18.37
2022-08-11T09:02:34.046Z,18.48
2022-08-11T09:03:41.066Z,19.07
2022-08-11T09:04:22.508Z,18.96
2022-08-11T09:05:21.374Z,19.05
2022-08-11T09:06:21.335Z,18.46
2022-08-11T09:07:21.329Z,19.11
2022-08-11T09:08:21.314Z,17.47
2022-08-11T09:09:21.324Z,16.79
2022-08-11T09:10:21.373Z,17.24
2022-08-11T09:11:21.490Z,17.33
2022-08-11T09:12:38.412Z,16.74
2022-08-11T09:13:22.270Z,17.01
2022-08-11T09:14:21.265Z,16.43
2022-08-11T09:15:21.280Z,16.72
2022-08-11T09:16:21.246Z,15.58
2022-08-11T09:17:21.237Z,15.96
2022-08-11T09:18:21.233Z,16.64
2022-08-11T09:19:21.224Z,17.50
2022-08-11T09:20:21.234Z,16.93
2022-08-11T09:21:37.129Z,16.63
2022-08-11T09:22:22.192Z,16.80
2022-08-11T09:24:26.390Z,16.80
2022-08-11T09:25:21.174Z,16.43
2022-08-11T09:26:21.965Z,16.55
2022-08-11T09:27:22.151Z,16.55
2022-08-11T09:28:21.145Z,17.42
2022-08-11T09:29:21.161Z,16.95
2022-08-11T09:30:21.229Z,16.66
2022-08-11T09:31:21.621Z,16.26
2022-08-11T09:32:21.135Z,15.88
2022-08-11T09:33:21.106Z,17.10
2022-08-11T09:34:21.110Z,16.34
2022-08-11T09:35:21.097Z,15.59
2022-08-11T09:36:21.082Z,16.94
2022-08-11T09:37:54.470Z,16.86
2022-08-11T09:38:22.364Z,17.35
2022-08-11T09:39:21.113Z,16.39
2022-08-11T09:40:21.044Z,17.66
2022-08-11T09:41:21.039Z,17.19
2022-08-11T09:42:23.428Z,17.94
2022-08-11T09:43:21.040Z,17.35
2022-08-11T09:44:21.021Z,16.56
2022-08-11T09:45:21.115Z,16.53
2022-08-11T09:46:20.991Z,16.46
2022-08-11T09:47:20.988Z,16.74
2022-08-11T09:48:20.974Z,16.44
2022-08-11T09:49:20.993Z,16.91
2022-08-11T09:50:20.956Z,15.58
2022-08-11T09:51:21.969Z,15.57
2022-08-11T09:52:20.943Z,15.66
2022-08-11T09:53:36.826Z,15.47
2022-08-11T09:54:21.942Z,15.00
2022-08-11T09:55:20.918Z,15.37
2022-08-11T09:56:20.930Z,15.46
2022-08-11T09:57:20.903Z,14.79
2022-08-11T09:58:43.068Z,14.79
2022-08-11T09:59:21.885Z,14.70
2022-08-11T10:00:20.904Z,15.09
2022-08-11T10:01:20.916Z,15.39
2022-08-11T10:02:21.514Z,15.87
2022-08-11T10:03:20.855Z,15.50
2022-08-11T10:04:20.846Z,16.74
2022-08-11T10:05:20.840Z,16.60
2022-08-11T10:06:20.848Z,17.02
2022-08-11T10:07:21.832Z,18.02
2022-08-11T10:08:21.039Z,18.35
2022-08-11T10:09:20.806Z,18.43
2022-08-11T10:10:20.811Z,16.85
2022-08-11T10:11:20.785Z,16.91
2022-08-11T10:12:20.781Z,16.50
2022-08-11T10:14:06.086Z,16.91
2022-08-11T10:14:34.063Z,17.02
2022-08-11T10:15:21.757Z,17.22
2022-08-11T10:16:20.748Z,17.68
2022-08-11T10:17:20.745Z,17.18
2022-08-11T10:18:20.748Z,16.97
2022-08-11T10:19:20.961Z,16.66
2022-08-11T10:20:25.628Z,15.80
2022-08-11T10:21:21.704Z,15.01
2022-08-11T10:22:20.696Z,15.68
2022-08-11T10:23:20.708Z,16.38
2022-08-11T10:24:20.702Z,17.05
2022-08-11T10:25:20.826Z,17.68
2022-08-11T10:26:20.663Z,18.18
2022-08-11T10:27:20.685Z,19.27
2022-08-11T10:28:33.909Z,18.98
2022-08-11T10:29:21.709Z,18.96
2022-08-11T10:30:20.629Z,18.27
2022-08-11T10:31:20.645Z,19.11
2022-08-11T10:32:20.665Z,17.88
2022-08-11T10:33:37.902Z,18.43
2022-08-11T10:34:21.591Z,17.83
2022-08-11T10:35:20.586Z,18.18
2022-08-11T10:36:20.576Z,16.46
2022-08-11T10:37:20.584Z,17.12
2022-08-11T10:38:21.484Z,17.11
2022-08-11T10:39:20.640Z,17.39
2022-08-11T10:40:20.555Z,17.14
2022-08-11T10:41:20.535Z,17.07
2022-08-11T10:42:30.244Z,17.93
2022-08-11T10:44:01.668Z,17.72
2022-08-11T10:44:21.516Z,17.99
2022-08-11T10:45:20.505Z,16.74
2022-08-11T10:46:29.725Z,17.10
2022-08-11T10:47:21.510Z,16.51
2022-08-11T10:48:20.477Z,16.68
2022-08-11T10:49:20.470Z,16.22
2022-08-11T10:50:20.465Z,17.35
2022-08-11T10:51:42.785Z,17.77
2022-08-11T10:52:21.448Z,18.15
2022-08-11T10:53:20.455Z,18.07
2022-08-11T10:54:20.436Z,19.26
2022-08-11T10:55:20.426Z,18.55
2022-08-11T10:56:20.463Z,17.65
2022-08-11T10:57:20.406Z,17.72
2022-08-11T10:58:20.428Z,16.95
2022-08-11T10:59:20.445Z,17.02
2022-08-11T11:00:20.384Z,16.80
2022-08-11T11:01:20.695Z,16.44
2022-08-11T11:02:20.384Z,16.52
2022-08-11T11:03:23.687Z,16.78
2022-08-11T11:04:20.351Z,17.05
2022-08-11T11:05:20.339Z,16.58
2022-08-11T11:06:28.729Z,15.16
2022-08-11T11:07:21.346Z,15.99
2022-08-11T11:08:20.317Z,14.94
2022-08-11T11:09:20.308Z,15.69
2022-08-11T11:10:20.310Z,15.88
2022-08-11T11:11:20.310Z,15.71
2022-08-11T11:12:20.301Z,16.62
2022-08-11T11:13:20.278Z,16.28
2022-08-11T11:14:20.269Z,18.28
2022-08-11T11:15:21.266Z,17.25
2022-08-11T11:16:21.022Z,17.47
2022-08-11T11:17:20.265Z,18.76
2022-08-11T11:18:20.244Z,18.88
2022-08-11T11:19:20.240Z,18.29
2022-08-11T11:20:36.613Z,18.06
2022-08-11T11:21:21.220Z,17.07
2022-08-11T11:22:20.224Z,17.66
2022-08-11T11:23:20.203Z,17.18
2022-08-11T11:24:20.190Z,18.07
2022-08-11T11:25:20.204Z,18.07
2022-08-11T11:26:27.427Z,19.15
2022-08-11T11:27:21.171Z,19.28
2022-08-11T11:28:20.160Z,18.70
2022-08-11T11:29:20.155Z,19.07
2022-08-11T11:30:20.160Z,18.98
2022-08-11T11:31:21.996Z,18.49
2022-08-11T11:32:20.137Z,19.48
2022-08-11T11:33:20.123Z,19.00
2022-08-11T11:34:20.175Z,18.80
2022-08-11T11:35:20.130Z,18.21
2022-08-11T11:36:20.098Z,18.58
2022-08-11T11:37:20.096Z,18.48
2022-08-11T11:38:20.106Z,18.17
2022-08-11T11:39:20.146Z,17.71
2022-08-11T11:40:20.071Z,19.18
2022-08-11T11:41:20.057Z,18.91
2022-08-11T11:42:20.059Z,20.09
2022-08-11T11:43:20.041Z,19.40
2022-08-11T11:44:21.064Z,18.91
2022-08-11T11:45:23.390Z,17.47
2022-08-11T11:46:20.018Z,18.43
2022-08-11T11:47:21.784Z,18.32
2022-08-11T11:48:20.005Z,17.65
2022-08-11T11:50:20.535Z,17.93
2022-08-11T11:51:19.980Z,17.74
2022-08-11T11:52:19.968Z,18.53
2022-08-11T11:53:19.967Z,18.24
2022-08-11T11:54:19.977Z,17.96
2022-08-11T11:55:20.021Z,18.97
2022-08-11T11:56:19.938Z,20.56
2022-08-11T11:57:19.945Z,21.86
2022-08-11T11:58:19.927Z,22.09
2022-08-11T11:59:19.965Z,22.67
2022-08-11T12:00:19.905Z,21.97
2022-08-11T12:01:19.930Z,21.47
2022-08-11T12:02:19.893Z,20.49
2022-08-11T12:03:19.986Z,20.28
2022-08-11T12:04:19.895Z,20.36
2022-08-11T12:05:19.896Z,20.59
2022-08-11T12:06:19.861Z,21.88
2022-08-11T12:07:20.131Z,22.20
2022-08-11T12:08:22.398Z,22.30
2022-08-11T12:09:19.834Z,21.69
2022-08-11T12:10:19.850Z,22.38
2022-08-11T12:11:19.827Z,22.69
2022-08-11T12:12:19.821Z,22.61
2022-08-11T12:13:19.809Z,22.80
2022-08-11T12:14:19.819Z,23.19
2022-08-11T12:15:19.812Z,23.27
2022-08-11T12:16:34.371Z,23.18
2022-08-11T12:17:20.774Z,23.18
2022-08-11T12:18:19.770Z,23.24
2022-08-11T12:19:19.761Z,22.65
2022-08-11T12:20:31.653Z,22.84
2022-08-11T12:21:20.746Z,21.86
2022-08-11T12:22:19.741Z,21.75
2022-08-11T12:23:19.741Z,23.02
2022-08-11T12:24:19.726Z,22.06
2022-08-11T12:25:19.731Z,21.57
2022-08-11T12:26:27.812Z,21.88
2022-08-11T12:27:20.697Z,22.34
2022-08-11T12:28:19.689Z,21.86
2022-08-11T12:29:19.680Z,21.77
2022-08-11T12:30:19.691Z,22.34
2022-08-11T12:31:19.670Z,22.34
2022-08-11T12:32:19.670Z,23.05
2022-08-11T12:33:21.567Z,22.69
2022-08-11T12:34:19.658Z,23.21
2022-08-11T12:35:19.661Z,24.41
2022-08-11T12:36:19.627Z,24.43
2022-08-11T12:37:19.873Z,25.03
2022-08-11T12:38:19.632Z,25.82
2022-08-11T12:39:24.270Z,25.81
2022-08-11T12:40:49.719Z,25.69
2022-08-11T12:41:20.818Z,25.08
2022-08-11T12:42:19.581Z,23.80
2022-08-11T12:43:21.844Z,23.79
2022-08-11T12:44:23.424Z,23.96
2022-08-11T12:45:22.152Z,24.15
2022-08-11T12:46:19.557Z,22.71
2022-08-11T12:47:19.536Z,22.72
2022-08-11T12:48:58.748Z,24.10
2022-08-11T12:49:20.515Z,24.01
2022-08-11T12:50:20.856Z,24.50
2022-08-11T12:51:19.500Z,24.40
2022-08-11T12:52:19.519Z,24.67
2022-08-11T12:53:19.497Z,24.98
2022-08-11T12:54:19.488Z,24.50